Time;durP1;ratioP1;P1;durP2;ratioP2;P2;SDS_P1;SDS_P2;PMS_P1;PMS_P2;Temp;Humidity;BMP_temperature;BMP_pressure;BME280_temperature;BME280_humidity;BME280_pressure;Samples;Min_cycle;Max_cycle;Signal;HPM_P1;HPM_P2
2022/05/01 00:04:43;;;;;;;3.10;1.17;;;;;;;20.23;34.27;102428.88;16137731;19;129489;-56
2022/05/01 00:10:06;;;;;;;3.25;1.27;;;;;;;20.21;34.28;102426.28;16132751;19;130297;-57
2022/05/01 00:15:28;;;;;;;1.70;1.02;;;;;;;20.17;33.79;102433.38;16133913;19;129807;-57
2022/05/01 00:20:50;;;;;;;2.85;1.45;;;;;;;20.17;34.12;102426.94;16137787;19;130400;-54
2022/05/01 00:26:12;;;;;;;1.88;1.10;;;;;;;20.13;33.91;102423.78;16135812;19;129971;-56
2022/05/01 00:31:34;;;;;;;2.85;1.23;;;;;;;20.11;33.87;102412.03;16134390;19;130766;-57
2022/05/01 00:36:56;;;;;;;1.63;0.98;;;;;;;20.09;33.93;102414.16;16136809;19;131142;-54
2022/05/01 00:42:17;;;;;;;2.10;1.17;;;;;;;20.06;33.88;102409.91;16134703;19;129863;-57
2022/05/01 00:47:40;;;;;;;2.67;1.27;;;;;;;20.02;34.05;102402.22;16136045;19;129370;-53
2022/05/01 00:53:05;;;;;;;2.95;1.25;;;;;;;20.01;33.98;102411.63;16128069;19;130309;-56
2022/05/01 00:58:29;;;;;;;3.05;1.30;;;;;;;19.98;34.20;102407.34;16133925;19;130659;-53
2022/05/01 01:03:52;;;;;;;2.42;1.30;;;;;;;19.97;33.91;102400.94;16138668;19;130804;-55
2022/05/01 01:09:16;;;;;;;2.30;1.40;;;;;;;19.94;33.82;102395.81;16131849;19;129613;-57
2022/05/01 01:14:37;;;;;;;2.97;1.48;;;;;;;19.89;33.89;102398.41;16129061;19;129451;-58
2022/05/01 01:19:59;;;;;;;1.45;1.15;;;;;;;19.87;34.13;102394.97;16125930;19;130414;-57
2022/05/01 01:25:24;;;;;;;3.05;1.30;;;;;;;19.86;33.82;102395.22;16147235;19;129975;-57
2022/05/01 01:36:28;;;;;;;2.90;1.20;;;;;;;19.82;34.12;102400.34;16147473;19;130594;-56
2022/05/01 01:41:54;;;;;;;1.02;0.93;;;;;;;19.79;33.81;102401.63;16146216;19;129970;-57
2022/05/01 01:47:17;;;;;;;;;;;;;;;19.75;34.07;102397.59;16145875;19;129177;-58
2022/05/01 01:52:44;;;;;;;1.33;0.90;;;;;;;19.75;33.88;102394.81;16137584;19;130971;-55
2022/05/01 01:58:06;;;;;;;1.65;0.90;;;;;;;19.73;33.78;102393.31;16140937;19;129725;-57
2022/05/01 02:03:27;;;;;;;0.82;0.70;;;;;;;19.73;33.96;102390.53;16146997;19;129882;-57
2022/05/01 02:08:49;;;;;;;1.00;0.80;;;;;;;19.69;33.99;102390.97;16144073;19;130076;-55
2022/05/01 02:14:11;;;;;;;1.00;0.90;;;;;;;19.68;34.25;102380.09;16143953;19;129686;-58
2022/05/01 02:19:33;;;;;;;1.30;0.93;;;;;;;19.66;34.25;102377.56;16147661;19;129953;-57
2022/05/01 02:24:54;;;;;;;1.30;1.10;;;;;;;19.66;34.26;102383.09;16145086;19;130355;-58
2022/05/01 02:30:16;;;;;;;0.65;0.65;;;;;;;19.64;34.15;102373.25;16143455;19;130187;-57
2022/05/01 02:35:38;;;;;;;5.90;0.70;;;;;;;19.62;33.94;102373.50;16142764;19;130097;-58
2022/05/01 02:41:02;;;;;;;9.60;5.38;;;;;;;19.50;32.15;102364.13;16148245;19;129128;-57
2022/05/01 02:46:26;;;;;;;4.40;2.90;;;;;;;19.45;32.71;102359.22;16148191;19;130029;-55
2022/05/01 02:51:48;;;;;;;7.07;3.05;;;;;;;19.49;32.97;102354.09;16142148;19;129760;-57
2022/05/01 02:57:10;;;;;;;11.95;3.50;;;;;;;19.51;32.86;102347.25;16140636;19;130429;-56
2022/05/01 03:02:32;;;;;;;13.02;3.42;;;;;;;19.47;32.41;102347.91;16147750;19;129845;-56
2022/05/01 03:07:55;;;;;;;5.55;2.90;;;;;;;19.43;32.60;102350.25;16145617;19;130589;-55
2022/05/01 03:13:18;;;;;;;7.47;2.80;;;;;;;19.44;32.40;102348.34;16141335;19;129263;-55
2022/05/01 03:24:20;;;;;;;9.18;2.58;;;;;;;19.43;32.95;102335.56;16146486;19;129420;-57
2022/05/01 03:30:15;;;;;;;7.57;2.03;;;;;;;19.43;32.98;102339.16;16146124;19;129536;-53
2022/05/01 03:35:24;;;;;;;7.07;2.10;;;;;;;19.41;32.67;102329.34;16146219;19;130252;-57
2022/05/01 03:40:47;;;;;;;5.65;2.03;;;;;;;19.42;32.93;102325.50;16145534;19;129503;-56
2022/05/01 03:46:10;;;;;;;3.55;1.98;;;;;;;19.40;33.15;102324.88;16144899;19;129569;-55
2022/05/01 03:51:33;;;;;;;4.90;1.67;;;;;;;19.38;33.08;102328.72;16141597;19;128855;-53
2022/05/01 03:56:54;;;;;;;5.05;1.77;;;;;;;19.36;32.92;102322.53;16143095;19;129190;-55
2022/05/01 04:02:16;;;;;;;4.55;1.65;;;;;;;19.36;32.95;102322.53;16139053;19;129752;-56
2022/05/01 04:07:39;;;;;;;3.63;1.50;;;;;;;19.36;33.13;102321.69;16143507;19;129530;-57
2022/05/01 04:13:01;;;;;;;1.70;1.10;;;;;;;19.32;32.96;102324.03;16139322;19;129673;-57
2022/05/01 04:18:22;;;;;;;3.42;1.38;;;;;;;19.32;32.91;102325.97;16143185;19;130239;-55
2022/05/01 04:23:44;;;;;;;5.35;1.50;;;;;;;19.29;32.80;102321.72;16139628;19;129318;-55
2022/05/01 04:34:46;;;;;;;2.25;1.38;;;;;;;19.26;32.96;102319.34;16135868;19;129776;-55
2022/05/01 04:40:09;;;;;;;2.17;1.20;;;;;;;19.26;33.18;102322.13;16141603;19;129428;-57
2022/05/01 04:45:31;;;;;;;2.03;1.20;;;;;;;19.26;32.77;102319.34;16141148;19;129216;-56
2022/05/01 04:50:53;;;;;;;1.20;1.10;;;;;;;19.24;32.90;102321.50;16137991;19;130791;-54
2022/05/01 05:01:55;;;;;;;3.50;1.20;;;;;;;19.21;32.89;102319.13;16142080;19;129620;-55
2022/05/01 05:07:23;;;;;;;2.88;1.30;;;;;;;19.20;32.81;102331.31;16140236;19;129281;-54
2022/05/01 05:12:47;;;;;;;7.70;1.52;;;;;;;19.21;33.04;102335.78;16132130;19;129875;-52
2022/05/01 05:18:08;;;;;;;1.85;1.10;;;;;;;19.20;32.79;102345.16;16137650;19;130641;-56
2022/05/01 05:23:30;;;;;;;4.28;1.02;;;;;;;19.20;33.12;102343.25;16133449;19;130616;-59
2022/05/01 05:28:52;;;;;;;1.50;0.80;;;;;;;19.26;33.14;102349.88;16137994;19;129362;-59
2022/05/01 05:34:14;;;;;;;1.23;1.08;;;;;;;19.33;33.11;102359.03;16133550;19;129922;-57
2022/05/01 05:39:36;;;;;;;3.33;1.10;;;;;;;19.38;33.34;102367.56;16136206;19;129657;-54
2022/05/01 05:44:59;;;;;;;2.38;1.52;;;;;;;19.47;32.91;102367.31;16135180;19;132094;-57
2022/05/01 05:50:21;;;;;;;3.20;1.30;;;;;;;19.68;33.05;102372.63;16129564;19;129095;-58
2022/05/01 05:55:45;;;;;;;5.47;1.23;;;;;;;20.10;32.31;102371.41;16132709;19;129422;-58
2022/05/01 06:01:06;;;;;;;1.90;1.05;;;;;;;20.55;32.01;102374.16;16134941;19;129830;-55
2022/05/01 06:06:28;;;;;;;4.35;1.35;;;;;;;20.98;31.32;102371.72;16131331;19;129443;-56
2022/05/01 06:11:50;;;;;;;3.38;1.30;;;;;;;21.25;31.34;102374.25;16145800;19;128901;-52
2022/05/01 06:17:12;;;;;;;2.17;1.20;;;;;;;21.34;30.93;102381.22;16149909;19;129272;-55
2022/05/01 06:22:34;;;;;;;2.15;1.20;;;;;;;21.37;30.68;102389.97;16149424;19;129958;-58
2022/05/01 06:27:56;;;;;;;2.78;1.35;;;;;;;21.37;30.85;102395.53;16147297;19;129359;-57
2022/05/01 06:33:20;;;;;;;2.35;1.50;;;;;;;21.33;30.70;102382.31;16146147;19;129524;-57
2022/05/01 06:38:43;;;;;;;2.00;1.58;;;;;;;21.25;31.02;102383.44;16149519;19;129304;-57
2022/05/01 06:44:04;;;;;;;4.25;2.00;;;;;;;21.18;30.79;102388.25;16148607;19;130625;-59
2022/05/01 06:49:26;;;;;;;3.38;2.00;;;;;;;21.10;30.79;102389.38;16147376;19;130286;-58
2022/05/01 06:54:48;;;;;;;4.22;2.25;;;;;;;21.07;30.84;102384.25;16140090;19;130326;-57
2022/05/01 07:00:11;;;;;;;6.90;2.00;;;;;;;21.02;31.37;102382.16;16144413;19;129566;-54
2022/05/01 07:05:32;;;;;;;2.83;1.65;;;;;;;21.04;30.84;102381.97;16145502;19;129646;-52
2022/05/01 07:10:54;;;;;;;7.72;2.10;;;;;;;21.03;31.38;102383.03;16146231;19;129340;-50
2022/05/01 07:16:20;;;;;;;10.27;2.15;;;;;;;21.00;31.20;102377.91;16140776;19;129401;-55
2022/05/01 07:21:42;;;;;;;2.85;1.60;;;;;;;21.01;31.33;102382.41;16145476;19;129322;-57
2022/05/01 07:27:04;;;;;;;2.92;1.52;;;;;;;21.01;31.59;102372.09;16146400;19;129474;-54
2022/05/01 07:32:26;;;;;;;2.00;1.27;;;;;;;21.03;31.53;102374.69;16143829;19;129714;-57
2022/05/01 07:37:48;;;;;;;2.60;1.38;;;;;;;21.04;31.58;102370.81;16146852;19;129207;-55
2022/05/01 07:43:10;;;;;;;3.38;1.10;;;;;;;21.05;31.78;102386.41;16146468;19;129611;-56
2022/05/01 07:48:32;;;;;;;2.50;1.48;;;;;;;21.07;31.85;102384.25;16141391;19;129015;-57
2022/05/01 07:53:56;;;;;;;1.70;1.48;;;;;;;21.11;31.92;102376.34;16141890;19;129816;-56
2022/05/01 07:59:18;;;;;;;6.37;1.80;;;;;;;21.13;32.25;102369.44;16143963;19;129080;-53
2022/05/01 08:04:39;;;;;;;2.13;1.30;;;;;;;21.14;31.71;102365.59;16143227;19;129255;-55
2022/05/01 08:10:08;;;;;;;2.47;1.50;;;;;;;21.23;32.00;102363.38;16144050;19;129438;-54
2022/05/01 08:15:30;;;;;;;2.63;1.30;;;;;;;21.48;31.55;102357.75;16136900;19;130131;-53
2022/05/01 08:21:05;;;;;;;3.80;1.55;;;;;;;21.74;31.50;102364.13;16141088;19;129772;-55
2022/05/01 08:26:27;;;;;;;4.57;1.40;;;;;;;21.96;31.58;102360.84;16137180;19;129753;-54
2022/05/01 08:31:49;;;;;;;3.90;1.70;;;;;;;22.14;32.00;102357.16;16137502;19;130607;-58
2022/05/01 08:37:11;;;;;;;2.42;1.30;;;;;;;22.27;32.19;102353.41;16138534;19;130099;-58
2022/05/01 08:42:36;;;;;;;3.40;1.45;;;;;;;22.39;32.38;102353.41;16137161;19;129824;-54
2022/05/01 08:48:12;;;;;;;2.47;1.45;;;;;;;22.47;32.36;102360.59;16139290;19;131610;-51
2022/05/01 08:53:37;;;;;;;3.25;1.27;;;;;;;22.44;32.33;102361.94;16130521;19;129818;-55
2022/05/01 08:59:00;;;;;;;2.80;1.30;;;;;;;22.48;32.78;102351.16;16138579;19;129489;-57
2022/05/01 09:04:25;;;;;;;2.78;1.27;;;;;;;22.49;32.71;102359.25;16135875;19;129388;-55
2022/05/01 09:09:46;;;;;;;5.95;1.40;;;;;;;22.50;32.53;102360.13;16139106;19;129098;-56
2022/05/01 09:15:09;;;;;;;3.97;1.15;;;;;;;22.50;32.64;102360.13;16131704;19;129867;-57
2022/05/01 09:20:32;;;;;;;2.05;1.15;;;;;;;22.49;32.37;102362.06;16139274;19;130066;-56
2022/05/01 09:25:58;;;;;;;2.15;1.33;;;;;;;22.49;32.47;102364.00;16136533;19;129122;-55
2022/05/01 09:31:43;;;;;;;25.25;2.20;;;;;;;22.51;32.96;102359.88;16137838;19;130030;-56
2022/05/01 09:37:19;;;;;;;8.13;1.35;;;;;;;22.51;33.38;102350.69;16136329;19;129072;-52
2022/05/01 09:42:40;;;;;;;;;;;;;;;22.46;33.99;102347.75;16136256;19;129783;-53
2022/05/01 09:48:19;;;;;;;4.15;1.30;;;;;;;22.44;33.66;102354.41;16145910;19;129422;-52
2022/05/01 09:53:44;;;;;;;6.80;1.52;;;;;;;22.39;33.58;102347.84;16148197;19;129631;-57
2022/05/01 09:59:06;;;;;;;;;;;;;;;22.32;34.49;102347.94;16150832;19;129350;-57
2022/05/01 10:04:37;;;;;;;6.78;1.30;;;;;;;22.28;34.41;102346.69;16151812;19;129982;-58
2022/05/01 10:10:01;;;;;;;3.13;1.50;;;;;;;22.18;34.72;102346.41;16151287;19;129337;-59
2022/05/01 10:15:23;;;;;;;3.67;1.40;;;;;;;22.08;34.84;102336.66;16145754;19;129543;-52
2022/05/01 10:20:45;;;;;;;7.35;1.50;;;;;;;21.98;35.23;102334.44;16147430;19;130659;-54
2022/05/01 10:26:20;;;;;;;4.45;1.40;;;;;;;21.90;35.39;102333.94;16148479;19;129089;-58
2022/05/01 10:32:21;;;;;;;5.63;1.50;;;;;;;21.83;36.16;102328.44;16143461;19;129898;-47
2022/05/01 10:38:19;;;;;;;3.13;1.40;;;;;;;21.73;36.37;102323.41;16139077;19;129391;-53
2022/05/01 10:43:53;;;;;;;4.82;1.30;;;;;;;21.66;36.30;102315.16;16144638;19;129661;-54
2022/05/01 10:49:34;;;;;;;5.82;1.60;;;;;;;21.64;35.99;102317.31;16142637;19;130496;-52
2022/05/01 10:55:04;;;;;;;5.78;1.70;;;;;;;21.57;36.37;102310.13;16144034;19;130156;-50
2022/05/01 11:00:27;;;;;;;3.75;1.50;;;;;;;21.48;36.14;102304.84;16145461;19;129280;-53
2022/05/01 11:05:54;;;;;;;2.90;1.27;;;;;;;21.44;35.95;102300.81;16147085;19;130393;-49
2022/05/01 11:11:19;;;;;;;3.42;1.10;;;;;;;21.42;36.11;102299.34;16145376;19;129394;-51
2022/05/01 11:16:55;;;;;;;2.43;1.00;;;;;;;21.42;36.48;102286.25;16139895;19;131020;-52
2022/05/01 11:22:25;;;;;;;9.70;1.53;;;;;;;21.40;36.33;102285.66;16143375;19;130194;-47
2022/05/01 11:27:50;;;;;;;10.27;1.52;;;;;;;21.42;36.73;102266.78;16142895;19;129421;-50
2022/05/01 11:33:12;;;;;;;8.55;1.70;;;;;;;21.41;36.67;102262.31;16141697;19;130038;-49
2022/05/01 11:38:37;;;;;;;11.20;1.77;;;;;;;21.32;36.46;102263.69;16142431;19;129442;-47
2022/05/01 11:44:18;;;;;;;8.10;1.57;;;;;;;21.27;36.64;102252.41;16144658;19;129481;-49
2022/05/01 11:49:40;;;;;;;3.53;1.50;;;;;;;21.19;36.56;102250.78;16135651;19;129758;-52
2022/05/01 11:55:08;;;;;;;5.90;1.90;;;;;;;21.12;36.36;102236.97;16138480;19;129125;-51
2022/05/01 12:06:23;;;;;;;4.32;1.40;;;;;;;21.03;36.21;102235.56;16140712;19;129063;-51
2022/05/01 12:11:47;;;;;;;5.45;1.42;;;;;;;21.01;36.20;102224.66;16143370;19;129489;-51
2022/05/01 12:17:15;;;;;;;5.10;1.60;;;;;;;20.99;36.48;102220.41;16143094;19;129003;-53
2022/05/01 12:22:43;;;;;;;9.18;1.65;;;;;;;20.98;36.25;102218.69;16143617;19;129656;-50
2022/05/01 12:28:07;;;;;;;4.78;1.65;;;;;;;20.99;36.22;102212.06;16143571;19;131656;-52
2022/05/01 12:33:29;;;;;;;4.15;1.52;;;;;;;20.97;35.85;102201.19;16140953;19;129033;-47
2022/05/01 12:39:04;;;;;;;4.43;1.60;;;;;;;20.97;35.77;102203.09;16143917;19;128905;-51
2022/05/01 12:44:25;;;;;;;3.70;1.50;;;;;;;20.92;35.41;102194.59;16142558;19;129125;-49
2022/05/01 12:49:54;;;;;;;3.45;1.40;;;;;;;20.89;35.52;102193.97;16138946;19;129424;-47
2022/05/01 12:55:18;;;;;;;5.93;1.50;;;;;;;20.87;35.75;102196.13;16137449;19;129569;-48
2022/05/01 13:00:46;;;;;;;2.17;1.20;;;;;;;20.86;35.65;102186.09;16135939;19;129320;-53
2022/05/01 13:06:15;;;;;;;2.03;1.40;;;;;;;20.84;35.83;102177.13;16141104;19;128889;-50
2022/05/01 13:11:36;;;;;;;2.65;1.25;;;;;;;20.84;35.47;102171.56;16139689;19;129050;-52
2022/05/01 13:17:12;;;;;;;3.40;1.10;;;;;;;20.87;35.53;102165.53;16139845;19;129364;-51
2022/05/01 13:22:34;;;;;;;2.28;1.15;;;;;;;20.86;35.41;102168.56;16140534;19;132202;-50
2022/05/01 13:27:56;;;;;;;3.20;1.48;;;;;;;20.86;35.41;102163.00;16137515;19;129408;-50
2022/05/01 13:33:17;;;;;;;3.83;1.50;;;;;;;20.83;35.45;102155.94;16137961;19;128911;-49
2022/05/01 13:38:39;;;;;;;2.60;1.30;;;;;;;20.82;35.21;102154.25;16133183;19;129166;-50
2022/05/01 13:49:41;;;;;;;2.17;1.40;;;;;;;20.78;35.24;102136.34;16135738;19;129404;-50
2022/05/01 13:55:04;;;;;;;2.25;1.20;;;;;;;20.75;35.16;102134.00;16134061;19;129469;-52
2022/05/01 14:00:26;;;;;;;2.83;1.60;;;;;;;20.73;35.30;102131.44;16134721;19;129344;-47
2022/05/01 14:05:48;;;;;;;1.52;1.25;;;;;;;20.71;35.26;102121.63;16138786;19;129172;-51
2022/05/01 14:11:10;;;;;;;2.58;1.20;;;;;;;20.71;35.24;102132.75;16136418;19;129201;-50
2022/05/01 14:16:31;;;;;;;1.70;1.30;;;;;;;20.68;34.73;102117.38;16129702;19;129189;-54
2022/05/01 14:21:59;;;;;;;1.83;1.30;;;;;;;20.64;34.82;102126.41;16136256;19;129356;-53
2022/05/01 14:27:41;;;;;;;2.53;1.50;;;;;;;20.57;35.05;102121.75;16134299;19;129589;-52
2022/05/01 14:33:14;;;;;;;4.50;1.75;;;;;;;20.53;35.69;102114.97;16147878;19;128995;-51
2022/05/01 14:38:49;;;;;;;2.47;1.13;;;;;;;20.55;35.34;102110.03;16150807;19;129153;-50
2022/05/01 14:44:13;;;;;;;1.75;1.25;;;;;;;20.62;34.82;102109.94;16149669;19;129091;-49
2022/05/01 14:49:45;;;;;;;2.13;1.42;;;;;;;20.70;34.69;102108.78;16149132;19;129354;-53
2022/05/01 14:55:08;;;;;;;1.67;1.20;;;;;;;20.72;34.65;102107.50;16146850;19;129391;-54
2022/05/01 15:06:18;;;;;;;1.85;1.30;;;;;;;20.78;34.19;102089.06;16148778;19;129246;-52
2022/05/01 15:11:40;;;;;;;1.77;1.20;;;;;;;20.82;33.90;102095.00;16148830;19;129401;-53
2022/05/01 15:17:09;;;;;;;2.67;1.38;;;;;;;20.84;33.51;102087.28;16143901;19;129839;-52
2022/05/01 15:22:43;;;;;;;1.63;1.23;;;;;;;20.88;33.68;102082.94;16146905;19;129644;-54
2022/05/01 15:28:11;;;;;;;2.05;1.50;;;;;;;20.89;33.39;102082.72;16146694;19;129224;-51
2022/05/01 15:39:04;;;;;;;2.92;1.23;;;;;;;20.96;32.93;102073.41;16146961;19;129475;-48
2022/05/01 15:44:30;;;;;;;2.17;1.20;;;;;;;20.97;33.23;102069.56;16145497;19;129530;-52
2022/05/01 15:55:34;;;;;;;1.17;1.08;;;;;;;20.97;33.22;102064.00;16145221;19;131920;-54
2022/05/01 16:00:58;;;;;;;1.88;1.10;;;;;;;20.95;32.87;102060.59;16146163;19;129543;-52
2022/05/01 16:06:21;;;;;;;1.55;1.00;;;;;;;20.93;32.95;102054.41;16146015;19;132143;-52
2022/05/01 16:11:49;;;;;;;1.98;1.30;;;;;;;20.86;32.75;102060.09;16143840;19;128789;-53
2022/05/01 16:17:36;;;;;;;1.45;1.15;;;;;;;20.80;33.16;102064.63;16139448;19;129265;-53
2022/05/01 16:23:09;;;;;;;1.60;1.20;;;;;;;20.74;32.95;102054.41;16144482;19;129195;-54
2022/05/01 16:28:37;;;;;;;1.58;1.20;;;;;;;20.70;32.44;102054.03;16144867;19;129892;-51
2022/05/01 16:34:25;;;;;;;2.72;1.38;;;;;;;20.66;32.72;102046.41;16141207;19;128830;-53
2022/05/01 16:39:46;;;;;;;2.35;1.60;;;;;;;20.62;32.59;102037.66;16142151;19;130151;-51
2022/05/01 16:45:11;;;;;;;2.80;1.55;;;;;;;20.58;32.75;102034.50;16142419;19;130087;-51
2022/05/01 16:50:33;;;;;;;3.65;1.63;;;;;;;20.54;32.53;102036.06;16141440;19;129587;-55
2022/05/01 16:55:56;;;;;;;4.35;1.30;;;;;;;20.51;32.62;102039.31;16135433;19;128947;-51
2022/05/01 17:01:29;;;;;;;2.05;1.50;;;;;;;20.52;32.23;102032.66;16142990;19;130394;-50
2022/05/01 17:07:03;;;;;;;1.60;1.40;;;;;;;20.51;32.18;102039.31;16143090;19;130076;-54
2022/05/01 17:12:31;;;;;;;1.25;1.15;;;;;;;20.48;32.31;102042.53;16140359;19;128948;-53
2022/05/01 17:18:05;;;;;;;3.40;1.77;;;;;;;20.48;32.39;102027.81;16135432;19;128946;-52
2022/05/01 17:23:28;;;;;;;1.38;1.10;;;;;;;20.39;32.56;102030.88;16139826;19;129019;-53
2022/05/01 17:28:50;;;;;;;3.20;1.38;;;;;;;20.39;32.37;102035.59;16138657;19;129543;-52
2022/05/01 17:34:15;;;;;;;1.77;1.05;;;;;;;20.38;32.41;102033.91;16139001;19;130036;-52
2022/05/01 17:39:38;;;;;;;2.37;1.10;;;;;;;20.43;32.19;102031.28;16140044;19;128919;-55
2022/05/01 17:45:01;;;;;;;1.55;1.13;;;;;;;20.50;32.25;102036.72;16140763;19;130222;-52
2022/05/01 17:50:24;;;;;;;1.98;1.00;;;;;;;20.54;32.09;102033.28;16136562;19;130529;-55
2022/05/01 17:55:47;;;;;;;1.30;0.90;;;;;;;20.56;31.64;102039.44;16123976;19;129593;-56
2022/05/01 18:01:55;;;;;;;2.15;1.05;;;;;;;20.57;31.51;102037.53;16136064;19;129713;-51
2022/05/01 18:13:24;;;;;;;1.48;0.85;;;;;;;20.58;31.63;102045.63;16150995;19;129466;-54
2022/05/01 18:19:03;;;;;;;2.92;1.10;;;;;;;20.57;31.83;102038.34;16152419;19;129341;-56
2022/05/01 18:24:54;;;;;;;3.15;0.90;;;;;;;20.59;32.04;102038.97;16151483;19;130025;-55
2022/05/01 18:30:22;;;;;;;4.90;1.00;;;;;;;20.55;31.99;102043.31;16150254;19;129226;-54
2022/05/01 18:35:47;;;;;;;3.40;1.00;;;;;;;20.55;31.71;102046.09;16147640;19;129544;-55
2022/05/01 18:41:12;;;;;;;1.00;0.63;;;;;;;20.52;32.12;102046.56;16151830;19;129497;-53
2022/05/01 18:46:36;;;;;;;4.72;1.20;;;;;;;20.50;31.87;102053.41;16149967;19;131538;-55
2022/05/01 18:52:04;;;;;;;1.75;0.95;;;;;;;20.47;32.12;102054.75;16142386;19;129795;-54
2022/05/01 18:57:26;;;;;;;2.63;1.13;;;;;;;20.44;31.65;102057.97;16139569;19;131000;-55
2022/05/01 19:02:49;;;;;;;3.65;1.17;;;;;;;20.41;32.17;102055.69;16146759;19;130004;-55
2022/05/01 19:08:34;;;;;;;1.20;1.10;;;;;;;20.38;31.95;102067.25;16150809;19;130125;-55
2022/05/01 19:14:14;;;;;;;7.35;1.42;;;;;;;20.35;32.01;102074.13;16142073;19;129931;-49
2022/05/01 19:19:38;;;;;;;4.22;1.10;;;;;;;20.33;31.91;102075.41;16146783;19;129688;-54
2022/05/01 19:31:19;;;;;;;8.68;1.23;;;;;;;20.31;31.87;102083.16;16145640;19;130195;-55
2022/05/01 19:36:46;;;;;;;5.22;1.23;;;;;;;20.29;32.05;102080.59;16141116;19;129125;-55
2022/05/01 19:42:07;;;;;;;2.58;1.00;;;;;;;20.32;32.17;102087.59;16145622;19;129727;-53
2022/05/01 19:53:57;;;;;;;3.85;1.10;;;;;;;20.31;32.72;102084.00;16144013;19;129550;-49
2022/05/01 19:59:22;;;;;;;8.90;1.17;;;;;;;20.33;32.43;102084.63;16142375;19;129518;-51
2022/05/01 20:04:46;;;;;;;5.80;1.00;;;;;;;20.36;32.86;102094.41;16141688;19;129079;-56
2022/05/01 20:10:09;;;;;;;3.63;1.10;;;;;;;20.40;32.97;102092.88;16143702;19;132463;-54
2022/05/01 20:15:52;;;;;;;4.38;1.00;;;;;;;20.44;32.88;102094.09;16136914;19;130316;-54
2022/05/01 20:21:35;;;;;;;2.40;0.80;;;;;;;20.47;32.96;102103.94;16144265;19;132168;-54
2022/05/01 20:26:56;;;;;;;2.33;0.90;;;;;;;20.49;32.91;102099.00;16141240;19;130218;-55
2022/05/01 20:32:27;;;;;;;2.95;1.08;;;;;;;20.49;32.88;102094.28;16144179;19;129794;-52
2022/05/01 20:37:57;;;;;;;4.47;0.68;;;;;;;20.52;32.71;102102.16;16138841;19;129827;-53
2022/05/01 20:43:32;;;;;;;2.80;0.60;;;;;;;20.49;32.73;102099.00;16140485;19;128957;-53
2022/05/01 20:49:18;;;;;;;1.20;0.63;;;;;;;20.49;32.99;102091.50;16140188;19;129845;-53
2022/05/01 20:54:49;;;;;;;1.95;0.50;;;;;;;20.46;32.77;102097.50;16140682;19;129537;-54
2022/05/01 21:00:11;;;;;;;2.58;0.75;;;;;;;20.43;32.84;102098.00;16140762;19;129561;-55
2022/05/01 21:05:34;;;;;;;2.88;0.70;;;;;;;20.41;32.71;102094.59;16140744;19;129498;-54
2022/05/01 21:11:04;;;;;;;1.75;0.70;;;;;;;20.38;33.14;102097.81;16143238;19;130907;-53
2022/05/01 21:16:26;;;;;;;2.15;0.80;;;;;;;20.36;32.85;102091.63;16132175;19;129915;-56
2022/05/01 21:21:48;;;;;;;3.90;0.88;;;;;;;20.34;32.91;102088.22;16139353;19;129286;-54
2022/05/01 21:27:10;;;;;;;1.23;0.50;;;;;;;20.31;32.92;102088.72;16137939;19;130342;-56
2022/05/01 21:32:32;;;;;;;1.00;0.40;;;;;;;20.29;32.89;102081.44;16136371;19;129198;-56
2022/05/01 21:37:54;;;;;;;0.90;0.57;;;;;;;20.26;32.66;102075.47;16132942;19;128938;-55
2022/05/01 21:43:16;;;;;;;1.17;0.50;;;;;;;20.23;33.13;102087.91;16150804;19;129806;-54
2022/05/01 21:48:38;;;;;;;2.05;1.10;;;;;;;20.21;32.74;102075.34;16150809;19;129463;-56
2022/05/01 21:54:02;;;;;;;1.02;0.90;;;;;;;20.20;32.65;102079.19;16150378;19;130008;-56
2022/05/01 21:59:24;;;;;;;4.85;1.02;;;;;;;20.17;32.66;102077.72;16148455;19;129533;-51
2022/05/01 22:04:49;;;;;;;2.85;1.40;;;;;;;20.15;32.79;102068.78;16146781;19;129333;-55
2022/05/01 22:10:11;;;;;;;;;;;;;;;20.11;32.19;102075.84;16150106;19;130934;-54
2022/05/01 22:15:33;;;;;;;1.67;1.10;;;;;;;20.11;32.30;102067.50;16144116;19;129408;-54
2022/05/01 22:20:55;;;;;;;2.72;1.15;;;;;;;20.09;32.27;102064.13;16148786;19;130385;-56
2022/05/01 22:26:17;;;;;;;1.45;1.08;;;;;;;20.07;32.56;102063.47;16148374;19;129632;-54
2022/05/01 22:31:38;;;;;;;2.53;1.50;;;;;;;20.05;32.36;102068.44;16146771;19;129043;-52
2022/05/01 22:42:40;;;;;;;2.45;1.38;;;;;;;20.01;32.35;102054.13;16147376;19;131298;-58
2022/05/01 22:48:03;;;;;;;2.38;1.60;;;;;;;19.99;32.65;102056.28;16146418;19;129310;-55
2022/05/01 22:53:24;;;;;;;2.88;1.40;;;;;;;19.97;32.26;102050.94;16138243;19;128982;-52
2022/05/01 22:58:46;;;;;;;1.92;1.60;;;;;;;19.97;32.17;102048.16;16140253;19;129333;-55
2022/05/01 23:04:08;;;;;;;4.57;2.03;;;;;;;19.95;32.45;102046.69;16144731;19;130933;-56
2022/05/01 23:09:30;;;;;;;2.40;1.70;;;;;;;19.94;32.12;102054.16;16144792;19;129462;-55
2022/05/01 23:14:52;;;;;;;3.20;1.98;;;;;;;19.91;32.35;102042.66;16140567;19;129540;-53
2022/05/01 23:20:15;;;;;;;2.08;1.50;;;;;;;19.90;32.13;102044.63;16142488;19;128960;-52
2022/05/01 23:25:37;;;;;;;3.88;1.95;;;;;;;19.88;32.54;102041.22;16144975;19;129121;-55
2022/05/01 23:30:59;;;;;;;2.22;1.50;;;;;;;19.87;32.47;102045.06;16143001;19;129712;-56
2022/05/01 23:36:20;;;;;;;2.85;1.80;;;;;;;19.86;32.08;102036.97;16141427;19;132367;-54
2022/05/01 23:41:42;;;;;;;2.10;1.80;;;;;;;19.84;32.28;102039.94;16143222;19;129347;-55
2022/05/01 23:47:05;;;;;;;1.90;1.80;;;;;;;19.82;32.29;102026.31;16143800;19;129518;-56
2022/05/01 23:52:29;;;;;;;3.30;1.90;;;;;;;19.79;32.47;102021.19;16139735;19;129770;-53
2022/05/01 23:57:50;;;;;;;2.60;1.92;;;;;;;19.79;32.38;102015.66;16137803;19;129093;-54
